Orkun Kalkavan — V7JB8 — position and weather

sailwx.info

Track history (hours):
 
Tides and Currents Weather Stations Pressure Air Temp Water Temp Dewpoint Dewpoint Depression Visibility Wind Speed Wind Dir Waves Ship Positions

Orkun Kalkavan

Last reported at 2016-Dec-10 03:25 UTC. Time now 2016-Dec-11 06:08 UTC.
Position N 29°52' E 122°15'.

Type: Cargo ship. MMSI: 538007069.

Date/timePositionNaut miles runAvg speedWind from/ knotsBaromVisibWave heightAir tempDewpointWater temp
2016-Dec-10 03:25N 29°52' E 122°15'0 0.0
2016-Dec-10 02:31N 29°52' E 122°15'0 0.0
2016-Dec-10 01:31N 29°52' E 122°15'0 0.0
2016-Dec-09 08:27N 29°52' E 122°15'0 0.0
2016-Dec-09 07:27N 29°52' E 122°15'0 0.0
2016-Dec-09 06:29N 29°52' E 122°15'0 0.0
2016-Dec-09 05:29N 29°52' E 122°15'0 0.0
2016-Dec-09 04:32N 29°52' E 122°15'0 0.0
2016-Dec-09 03:33N 29°52' E 122°15'0 0.0
2016-Dec-09 02:32N 29°52' E 122°15'0 0.0
2016-Dec-08 03:33N 29°52' E 122°15'7 7.0
2016-Dec-08 02:33N 29°46' E 122°18'7 6.5
2016-Dec-08 01:33N 29°43' E 122°25'1515.1
2016-Dec-08 00:34N 29°42' E 122°42'36 3.2
2016-Dec-07 13:23N 29°54' E 123°22'34 1.2
2016-Dec-06 08:32N 29°39' E 122°47'1313.3
2016-Dec-06 07:33N 29°40' E 122°32'5 5.1
2016-Dec-06 06:32N 29°39' E 122°26'5 5.2
2016-Dec-06 05:33N 29°43' E 122°22'1010.6
2016-Dec-06 04:33N 29°50' E 122°13'2 2.1
2016-Dec-06 03:33N 29°52' E 122°14'0 0.3
2016-Dec-06 02:10N 29°52' E 122°13'0 0.0
2016-Dec-06 01:28N 29°52' E 122°13'0 0.1
2016-Dec-06 00:31N 29°52' E 122°13'0 0.0
2016-Dec-05 23:28N 29°52' E 122°13'0 0.0
2016-Dec-05 22:31N 29°52' E 122°13'0 0.0
2016-Dec-05 21:28N 29°52' E 122°13'0 0.1
2016-Dec-05 20:28N 29°52' E 122°13'0 0.1
2016-Dec-05 19:28N 29°52' E 122°13'0 0.0
2016-Dec-05 15:28N 29°52' E 122°13'0 0.1
2016-Dec-05 14:28N 29°52' E 122°13'0 0.0
2016-Dec-05 13:33N 29°52' E 122°13'0 0.0
2016-Dec-05 12:33N 29°52' E 122°13'0 0.0
2016-Dec-05 11:33N 29°52' E 122°13'0 0.0
2016-Dec-05 10:31N 29°52' E 122°13'1 1.3
2016-Dec-05 09:33N 29°52' E 122°15'0 0.3
2016-Dec-05 08:24N 29°52' E 122°15'0 0.0
2016-Dec-05 07:27N 29°52' E 122°15'0 0.0
2016-Dec-05 06:28N 29°52' E 122°15'0 0.0
2016-Dec-05 05:28N 29°52' E 122°15'0 0.0
2016-Dec-05 04:33N 29°52' E 122°15'0 0.0
2016-Dec-05 03:31N 29°52' E 122°15'0 0.0
2016-Dec-05 02:33N 29°52' E 122°15'0 0.0
2016-Dec-05 01:30N 29°52' E 122°15'0 0.0
2016-Dec-04 03:13N 29°52' E 122°15'0 0.1
2016-Dec-04 02:31N 29°52' E 122°15'  
2016-Dec-01 07:24N 29°52' E 122°15'0 0.0
2016-Dec-01 06:31N 29°52' E 122°15'0 0.0
2016-Dec-01 05:33N 29°52' E 122°15'0 0.0
2016-Dec-01 04:18N 29°52' E 122°15'0 0.0
2016-Dec-01 03:12N 29°52' E 122°15'0 0.0
2016-Dec-01 02:19N 29°52' E 122°15'0 0.0
2016-Nov-30 07:31N 29°52' E 122°15'  
Track history (hours):
 
Tides and Currents Weather Stations Pressure Air Temp Water Temp Dewpoint Dewpoint Depression Visibility Wind Speed Wind Dir Waves Ship Positions

Orkun Kalkavan

Last reported at 2016-Dec-10 03:25 UTC. Time now 2016-Dec-11 06:08 UTC.
Position N 29°52' E 122°15'.

Type: Cargo ship. MMSI: 538007069.

Date/timePositionNaut miles runAvg speedWind from/ knotsBaromVisibWave heightAir tempDewpointWater temp
2016-Dec-10 03:25N 29°52' E 122°15'0 0.0
2016-Dec-10 02:31N 29°52' E 122°15'0 0.0
2016-Dec-10 01:31N 29°52' E 122°15'0 0.0
2016-Dec-09 08:27N 29°52' E 122°15'0 0.0
2016-Dec-09 07:27N 29°52' E 122°15'0 0.0
2016-Dec-09 06:29N 29°52' E 122°15'0 0.0
2016-Dec-09 05:29N 29°52' E 122°15'0 0.0
2016-Dec-09 04:32N 29°52' E 122°15'0 0.0
2016-Dec-09 03:33N 29°52' E 122°15'0 0.0
2016-Dec-09 02:32N 29°52' E 122°15'0 0.0
2016-Dec-08 03:33N 29°52' E 122°15'7 7.0
2016-Dec-08 02:33N 29°46' E 122°18'7 6.5
2016-Dec-08 01:33N 29°43' E 122°25'1515.1
2016-Dec-08 00:34N 29°42' E 122°42'36 3.2
2016-Dec-07 13:23N 29°54' E 123°22'34 1.2
2016-Dec-06 08:32N 29°39' E 122°47'1313.3
2016-Dec-06 07:33N 29°40' E 122°32'5 5.1
2016-Dec-06 06:32N 29°39' E 122°26'5 5.2
2016-Dec-06 05:33N 29°43' E 122°22'1010.6
2016-Dec-06 04:33N 29°50' E 122°13'2 2.1
2016-Dec-06 03:33N 29°52' E 122°14'0 0.3
2016-Dec-06 02:10N 29°52' E 122°13'0 0.0
2016-Dec-06 01:28N 29°52' E 122°13'0 0.1
2016-Dec-06 00:31N 29°52' E 122°13'0 0.0
2016-Dec-05 23:28N 29°52' E 122°13'0 0.0
2016-Dec-05 22:31N 29°52' E 122°13'0 0.0
2016-Dec-05 21:28N 29°52' E 122°13'0 0.1
2016-Dec-05 20:28N 29°52' E 122°13'0 0.1
2016-Dec-05 19:28N 29°52' E 122°13'0 0.0
2016-Dec-05 15:28N 29°52' E 122°13'0 0.1
2016-Dec-05 14:28N 29°52' E 122°13'0 0.0
2016-Dec-05 13:33N 29°52' E 122°13'0 0.0
2016-Dec-05 12:33N 29°52' E 122°13'0 0.0
2016-Dec-05 11:33N 29°52' E 122°13'0 0.0
2016-Dec-05 10:31N 29°52' E 122°13'1 1.3
2016-Dec-05 09:33N 29°52' E 122°15'0 0.3
2016-Dec-05 08:24N 29°52' E 122°15'0 0.0
2016-Dec-05 07:27N 29°52' E 122°15'0 0.0
2016-Dec-05 06:28N 29°52' E 122°15'0 0.0
2016-Dec-05 05:28N 29°52' E 122°15'0 0.0
2016-Dec-05 04:33N 29°52' E 122°15'0 0.0
2016-Dec-05 03:31N 29°52' E 122°15'0 0.0
2016-Dec-05 02:33N 29°52' E 122°15'0 0.0
2016-Dec-05 01:30N 29°52' E 122°15'0 0.0
2016-Dec-04 03:13N 29°52' E 122°15'0 0.1
2016-Dec-04 02:31N 29°52' E 122°15'  
2016-Dec-01 07:24N 29°52' E 122°15'0 0.0
2016-Dec-01 06:31N 29°52' E 122°15'0 0.0
2016-Dec-01 05:33N 29°52' E 122°15'0 0.0
2016-Dec-01 04:18N 29°52' E 122°15'0 0.0
2016-Dec-01 03:12N 29°52' E 122°15'0 0.0
2016-Dec-01 02:19N 29°52' E 122°15'0 0.0
2016-Nov-30 07:31N 29°52' E 122°15'  

Dump ship's entire track history